This is the latest recevied weather packets stored in our database for station/object KN4QD-13. If no packets are shown the sender has not sent any weather packets the latest 10 day(s).
| Time | Temp. | Humidity | Pressure | Rain* | Wind** | Luminosity | Snow |
|---|---|---|---|---|---|---|---|
| 1777732955 | 8.89° C | 77% | 1011.7 hPa | 0 mm | - | - | - |
| 1777732335 | 8.89° C | 79% | 1011.6 hPa | 0 mm | - | - | - |
| 1777724537 | 7.78° C | 84% | 1011.6 hPa | 0 mm | - | - | - |
| 1777722137 | 7.22° C | 86% | 1011.5 hPa | 0 mm | - | - | - |
| 1777720937 | 7.22° C | 86% | 1011.2 hPa | 0 mm | - | - | - |
| 1777719737 | 7.22° C | 85% | 1010.7 hPa | 0 mm | - | - | - |
| 1777708337 | 8.89° C | 79% | 1012.4 hPa | 0 mm | - | - | - |
| 1777705357 | 8.89° C | 76% | 1012.3 hPa | 0 mm | - | - | - |
| 1777702936 | 9.44° C | 74% | 1012.2 hPa | 0 mm | - | - | - |
| 1777702336 | 9.44° C | 73% | 1012.4 hPa | 0 mm | - | - | - |
| 1777699936 | 9.44° C | 71% | 1013 hPa | 0 mm | - | - | - |
| 1777698136 | 10° C | 68% | 1013.7 hPa | 0 mm | - | - | - |
| 1777692136 | 10.56° C | 66% | 1013.3 hPa | 0 mm | - | - | - |
| 1777690336 | 10.56° C | 63% | 1013.3 hPa | 0 mm | - | - | - |
| 1777687936 | 10.56° C | 61% | 1013.1 hPa | 0 mm | - | - | - |
| 1777685536 | 11.11° C | 60% | 1012.6 hPa | 0 mm | - | - | - |
| 1777683736 | 11.67° C | 58% | 1012.1 hPa | 0 mm | - | - | - |
| 1777681376 | 12.22° C | 59% | 1011.3 hPa | 0 mm | - | - | - |
| 1777679536 | 13.33° C | 58% | 1011.2 hPa | 0 mm | - | - | - |
| 1777677136 | 14.44° C | 57% | 1011 hPa | 0 mm | - | - | - |
| 1777671736 | 15° C | 54% | 1011.6 hPa | 0 mm | - | - | - |
| 1777668136 | 16.11° C | 52% | 1011.6 hPa | 0 mm | - | - | - |
| 1777665776 | 16.11° C | 50% | 1012 hPa | 0 mm | - | - | - |
| 1777663936 | 15.56° C | 49% | 1012.2 hPa | 0 mm | - | - | - |
| 1777659135 | 15.56° C | 48% | 1012.7 hPa | 0 mm | - | - | - |
* Rain latest hour (hover to see other rain measurements)
** Current wind speed in m/s (hover to see current wind gust speed)